sensor_id;sensor_type;location;lat;lon;timestamp;temperature;humidity
45735;DHT22;31446;49.632;8.328;2023-09-19T00:08:21;16.30;99.90
45735;DHT22;31446;49.632;8.328;2023-09-19T00:23:29;16.60;99.90
45735;DHT22;31446;49.632;8.328;2023-09-19T00:38:36;16.90;99.90
45735;DHT22;31446;49.632;8.328;2023-09-19T00:53:43;16.90;99.90
45735;DHT22;31446;49.632;8.328;2023-09-19T01:08:54;17.10;99.90
45735;DHT22;31446;49.632;8.328;2023-09-19T01:39:51;17.30;99.90
45735;DHT22;31446;49.632;8.328;2023-09-19T01:55:05;17.50;99.90
45735;DHT22;31446;49.632;8.328;2023-09-19T02:10:12;17.70;99.90
45735;DHT22;31446;49.632;8.328;2023-09-19T02:25:18;17.50;99.90
45735;DHT22;31446;49.632;8.328;2023-09-19T02:40:25;17.40;99.90
45735;DHT22;31446;49.632;8.328;2023-09-19T02:55:31;17.10;99.90
45735;DHT22;31446;49.632;8.328;2023-09-19T03:10:38;16.90;99.90
45735;DHT22;31446;49.632;8.328;2023-09-19T03:25:44;16.70;99.90
45735;DHT22;31446;49.632;8.328;2023-09-19T03:40:51;16.70;99.90
45735;DHT22;31446;49.632;8.328;2023-09-19T03:55:58;16.60;99.90
45735;DHT22;31446;49.632;8.328;2023-09-19T04:11:04;16.50;99.90
45735;DHT22;31446;49.632;8.328;2023-09-19T04:26:11;16.30;99.90
45735;DHT22;31446;49.632;8.328;2023-09-19T04:41:20;16.20;99.90
45735;DHT22;31446;49.632;8.328;2023-09-19T04:56:26;16.00;99.90
45735;DHT22;31446;49.632;8.328;2023-09-19T05:11:36;15.90;99.90
45735;DHT22;31446;49.632;8.328;2023-09-19T05:26:42;16.20;99.90
45735;DHT22;31446;49.632;8.328;2023-09-19T05:41:50;16.70;99.90
45735;DHT22;31446;49.632;8.328;2023-09-19T05:56:57;16.50;99.90
45735;DHT22;31446;49.632;8.328;2023-09-19T06:12:04;16.60;99.90
45735;DHT22;31446;49.632;8.328;2023-09-19T06:27:11;17.00;99.90
45735;DHT22;31446;49.632;8.328;2023-09-19T06:42:17;17.70;99.90
45735;DHT22;31446;49.632;8.328;2023-09-19T06:57:30;17.70;99.90
45735;DHT22;31446;49.632;8.328;2023-09-19T07:12:44;17.80;99.90
45735;DHT22;31446;49.632;8.328;2023-09-19T07:27:52;17.90;99.90
45735;DHT22;31446;49.632;8.328;2023-09-19T07:42:58;18.40;99.90
45735;DHT22;31446;49.632;8.328;2023-09-19T07:58:05;19.10;99.90
45735;DHT22;31446;49.632;8.328;2023-09-19T08:13:12;19.20;99.90
45735;DHT22;31446;49.632;8.328;2023-09-19T08:28:20;19.30;99.90
45735;DHT22;31446;49.632;8.328;2023-09-19T08:43:28;19.50;99.90
45735;DHT22;31446;49.632;8.328;2023-09-19T08:58:46;20.00;99.90
45735;DHT22;31446;49.632;8.328;2023-09-19T09:13:54;19.90;99.90
45735;DHT22;31446;49.632;8.328;2023-09-19T09:29:00;20.20;99.90
45735;DHT22;31446;49.632;8.328;2023-09-19T09:44:16;20.40;99.90
45735;DHT22;31446;49.632;8.328;2023-09-19T09:59:23;20.90;99.90
45735;DHT22;31446;49.632;8.328;2023-09-19T10:14:35;20.70;99.90
45735;DHT22;31446;49.632;8.328;2023-09-19T10:29:45;21.30;99.90
45735;DHT22;31446;49.632;8.328;2023-09-19T10:44:55;21.90;99.90
45735;DHT22;31446;49.632;8.328;2023-09-19T11:00:04;21.60;99.90
45735;DHT22;31446;49.632;8.328;2023-09-19T11:46:55;22.30;99.90
45735;DHT22;31446;49.632;8.328;2023-09-19T12:02:05;22.30;99.90
45735;DHT22;31446;49.632;8.328;2023-09-19T12:17:11;22.70;99.90
45735;DHT22;31446;49.632;8.328;2023-09-19T12:32:17;22.90;99.90
45735;DHT22;31446;49.632;8.328;2023-09-19T12:47:25;23.80;99.90
45735;DHT22;31446;49.632;8.328;2023-09-19T13:02:33;23.80;99.90
45735;DHT22;31446;49.632;8.328;2023-09-19T13:17:46;24.30;99.90
45735;DHT22;31446;49.632;8.328;2023-09-19T13:33:04;23.60;99.90
45735;DHT22;31446;49.632;8.328;2023-09-19T13:48:10;23.40;99.90
45735;DHT22;31446;49.632;8.328;2023-09-19T14:03:17;24.20;99.90
45735;DHT22;31446;49.632;8.328;2023-09-19T14:18:23;23.70;99.90
45735;DHT22;31446;49.632;8.328;2023-09-19T14:33:30;23.40;99.90
45735;DHT22;31446;49.632;8.328;2023-09-19T14:48:36;23.10;99.90
45735;DHT22;31446;49.632;8.328;2023-09-19T15:03:43;23.10;99.90
45735;DHT22;31446;49.632;8.328;2023-09-19T15:18:49;23.60;99.90
45735;DHT22;31446;49.632;8.328;2023-09-19T15:33:56;23.60;99.90
45735;DHT22;31446;49.632;8.328;2023-09-19T15:49:02;23.20;99.90
45735;DHT22;31446;49.632;8.328;2023-09-19T16:04:11;23.20;99.90
45735;DHT22;31446;49.632;8.328;2023-09-19T16:19:17;22.80;99.90
45735;DHT22;31446;49.632;8.328;2023-09-19T16:34:24;22.30;99.90
45735;DHT22;31446;49.632;8.328;2023-09-19T16:49:30;22.30;99.90
45735;DHT22;31446;49.632;8.328;2023-09-19T17:04:36;22.00;99.90
45735;DHT22;31446;49.632;8.328;2023-09-19T17:19:42;21.60;99.90
45735;DHT22;31446;49.632;8.328;2023-09-19T17:34:49;21.20;99.90
45735;DHT22;31446;49.632;8.328;2023-09-19T17:49:55;20.70;99.90
45735;DHT22;31446;49.632;8.328;2023-09-19T18:05:01;20.00;99.90
45735;DHT22;31446;49.632;8.328;2023-09-19T18:20:09;19.50;99.90
45735;DHT22;31446;49.632;8.328;2023-09-19T18:35:18;19.10;99.90
45735;DHT22;31446;49.632;8.328;2023-09-19T18:50:24;18.90;99.90
45735;DHT22;31446;49.632;8.328;2023-09-19T19:05:31;18.60;99.90
45735;DHT22;31446;49.632;8.328;2023-09-19T19:20:37;18.40;99.90
45735;DHT22;31446;49.632;8.328;2023-09-19T19:35:44;18.10;99.90
45735;DHT22;31446;49.632;8.328;2023-09-19T19:50:51;18.00;99.90
45735;DHT22;31446;49.632;8.328;2023-09-19T20:05:57;17.70;99.90
45735;DHT22;31446;49.632;8.328;2023-09-19T20:21:09;17.60;99.90
45735;DHT22;31446;49.632;8.328;2023-09-19T20:36:16;17.80;99.90
45735;DHT22;31446;49.632;8.328;2023-09-19T20:51:22;18.30;99.90
45735;DHT22;31446;49.632;8.328;2023-09-19T21:06:30;18.20;99.90
45735;DHT22;31446;49.632;8.328;2023-09-19T21:21:37;18.20;99.90
45735;DHT22;31446;49.632;8.328;2023-09-19T21:36:44;18.20;99.90
45735;DHT22;31446;49.632;8.328;2023-09-19T21:51:50;18.40;99.90
45735;DHT22;31446;49.632;8.328;2023-09-19T22:06:57;18.50;99.90
45735;DHT22;31446;49.632;8.328;2023-09-19T22:22:03;18.50;99.90
45735;DHT22;31446;49.632;8.328;2023-09-19T22:37:12;18.30;99.90
45735;DHT22;31446;49.632;8.328;2023-09-19T22:52:18;18.10;99.90
45735;DHT22;31446;49.632;8.328;2023-09-19T23:07:24;18.10;99.90
45735;DHT22;31446;49.632;8.328;2023-09-19T23:22:31;18.20;99.90
45735;DHT22;31446;49.632;8.328;2023-09-19T23:37:39;18.00;99.90
45735;DHT22;31446;49.632;8.328;2023-09-19T23:52:47;17.80;99.90
